createdAt,value
2018-06-04T00:00:07.394Z,17.63
2018-06-04T00:01:32.625Z,17.60
2018-06-04T00:03:00.252Z,17.58
2018-06-04T00:04:27.878Z,17.53
2018-06-04T00:05:55.694Z,17.45
2018-06-04T00:07:23.216Z,17.40
2018-06-04T00:08:50.613Z,17.37
2018-06-04T00:10:18.093Z,17.33
2018-06-04T00:11:44.952Z,17.28
2018-06-04T00:13:11.238Z,17.23
2018-06-04T00:14:39.756Z,17.21
2018-06-04T00:16:05.574Z,17.22
2018-06-04T00:17:32.712Z,17.23
2018-06-04T00:19:00.171Z,17.25
2018-06-04T00:20:28.675Z,17.24
2018-06-04T00:21:54.990Z,17.22
2018-06-04T00:23:22.647Z,17.20
2018-06-04T00:24:50.983Z,17.19
2018-06-04T00:26:17.281Z,17.21
2018-06-04T00:27:44.909Z,17.24
2018-06-04T00:29:12.203Z,17.27
2018-06-04T00:30:39.805Z,17.30
2018-06-04T00:32:07.222Z,17.32
2018-06-04T00:33:35.774Z,17.28
2018-06-04T00:35:03.369Z,17.24
2018-06-04T00:36:35.920Z,17.23
2018-06-04T00:37:57.158Z,17.19
2018-06-04T00:39:24.688Z,17.18
2018-06-04T00:40:52.185Z,17.18
2018-06-04T00:42:18.604Z,17.19
2018-06-04T00:43:46.185Z,17.21
2018-06-04T00:45:14.476Z,17.23
2018-06-04T00:46:40.880Z,17.26
2018-06-04T00:48:08.015Z,17.28
2018-06-04T00:49:35.434Z,17.30
2018-06-04T00:51:03.062Z,17.32
2018-06-04T00:52:30.485Z,17.32
2018-06-04T00:53:58.028Z,17.30
2018-06-04T00:55:26.044Z,17.25
2018-06-04T00:56:52.568Z,17.18
2018-06-04T00:58:19.978Z,17.11
2018-06-04T00:59:46.273Z,17.06
2018-06-04T01:01:14.601Z,17.03
2018-06-04T01:02:40.998Z,17.05
2018-06-04T01:04:09.066Z,17.03
2018-06-04T01:05:35.555Z,17.03
2018-06-04T01:07:04.063Z,17.00
2018-06-04T01:08:30.499Z,16.96
2018-06-04T01:09:58.106Z,16.94
2018-06-04T01:11:26.547Z,16.91
2018-06-04T01:12:53.942Z,16.89
2018-06-04T01:14:20.412Z,16.90
2018-06-04T01:15:47.668Z,16.90
2018-06-04T01:17:15.094Z,16.91
2018-06-04T01:18:41.897Z,16.92
2018-06-04T01:20:08.396Z,16.94
2018-06-04T01:21:36.368Z,16.95
2018-06-04T01:23:02.997Z,16.94
2018-06-04T01:24:29.581Z,16.93
2018-06-04T01:25:56.928Z,16.93
2018-06-04T01:27:23.291Z,16.93
2018-06-04T01:28:51.845Z,16.93
2018-06-04T01:30:18.105Z,16.94
2018-06-04T01:31:46.595Z,16.95
2018-06-04T01:33:12.250Z,16.97
2018-06-04T01:34:40.640Z,16.95
2018-06-04T01:36:06.538Z,16.92
2018-06-04T01:37:33.936Z,16.92
2018-06-04T01:39:01.575Z,16.89
2018-06-04T01:40:28.923Z,16.89
2018-06-04T01:41:56.446Z,16.90
2018-06-04T01:43:23.934Z,16.92
2018-06-04T01:44:51.580Z,16.94
2018-06-04T01:46:18.023Z,16.91
2018-06-04T01:47:46.581Z,16.89
2018-06-04T01:49:12.630Z,16.85
2018-06-04T01:50:40.067Z,16.82
2018-06-04T01:52:07.685Z,16.81
2018-06-04T01:53:35.141Z,16.78
2018-06-04T01:55:02.615Z,16.75
2018-06-04T01:56:31.154Z,16.71
2018-06-04T01:57:57.575Z,16.69
2018-06-04T01:59:25.104Z,16.67
2018-06-04T02:00:51.564Z,16.64
2018-06-04T02:02:19.173Z,16.61
2018-06-04T02:03:47.475Z,16.59
2018-06-04T02:05:14.872Z,16.57
2018-06-04T02:06:42.239Z,16.55
2018-06-04T02:08:09.573Z,16.52
2018-06-04T02:09:36.744Z,16.50
2018-06-04T02:11:01.621Z,16.49
2018-06-04T02:12:29.086Z,16.51
2018-06-04T02:13:56.666Z,16.50
2018-06-04T02:15:23.569Z,16.49
2018-06-04T02:16:49.833Z,16.48
2018-06-04T02:18:17.421Z,16.51
2018-06-04T02:19:42.893Z,16.52
2018-06-04T02:21:10.436Z,16.54
2018-06-04T02:22:38.993Z,16.54
2018-06-04T02:24:05.131Z,16.56
2018-06-04T02:25:32.553Z,16.56
2018-06-04T02:27:00.009Z,16.54
2018-06-04T02:28:25.548Z,16.52
2018-06-04T02:29:53.272Z,16.52
2018-06-04T02:31:19.795Z,16.50
2018-06-04T02:32:47.150Z,16.52
2018-06-04T02:34:15.757Z,16.53
2018-06-04T02:35:42.024Z,16.49
2018-06-04T02:37:09.435Z,16.51
2018-06-04T02:38:35.225Z,16.53
2018-06-04T02:40:01.475Z,16.54
2018-06-04T02:41:30.076Z,16.54
2018-06-04T02:42:57.592Z,16.56
2018-06-04T02:44:24.151Z,16.58
2018-06-04T02:45:51.587Z,16.57
2018-06-04T02:47:19.010Z,16.55
2018-06-04T02:48:46.408Z,16.52
2018-06-04T02:50:13.004Z,16.49
2018-06-04T02:51:39.336Z,16.43
2018-06-04T02:53:05.726Z,16.39
2018-06-04T02:54:34.022Z,16.34
2018-06-04T02:56:01.519Z,16.30
2018-06-04T02:57:27.043Z,16.28
2018-06-04T02:58:55.560Z,16.28
2018-06-04T03:00:22.011Z,16.25
2018-06-04T03:01:50.689Z,16.26
2018-06-04T03:03:18.169Z,16.26
2018-06-04T03:04:44.507Z,16.26
2018-06-04T03:06:11.166Z,16.26
2018-06-04T03:07:39.395Z,16.25
2018-06-04T03:09:05.629Z,16.24
2018-06-04T03:10:32.959Z,16.26
2018-06-04T03:12:01.555Z,16.26
2018-06-04T03:13:27.977Z,16.29
2018-06-04T03:14:54.663Z,16.30
2018-06-04T03:16:22.072Z,16.30
2018-06-04T03:17:49.457Z,16.32
2018-06-04T03:19:14.865Z,16.30
2018-06-04T03:20:42.265Z,16.31
2018-06-04T03:22:09.693Z,16.30
2018-06-04T03:23:37.550Z,16.32
2018-06-04T03:25:04.841Z,16.35
2018-06-04T03:26:32.388Z,16.36
2018-06-04T03:27:59.849Z,16.37
2018-06-04T03:29:26.331Z,16.38
2018-06-04T03:30:53.790Z,16.39
2018-06-04T03:32:21.185Z,16.38
2018-06-04T03:33:47.515Z,16.39
2018-06-04T03:35:15.849Z,16.39
2018-06-04T03:36:42.075Z,16.39
2018-06-04T03:38:09.527Z,16.38
2018-06-04T03:39:37.897Z,16.38
2018-06-04T03:41:04.470Z,16.41
2018-06-04T03:42:32.041Z,16.42
2018-06-04T03:43:59.499Z,16.43
2018-06-04T03:45:26.932Z,16.46
2018-06-04T03:46:52.376Z,16.52
2018-06-04T03:48:20.990Z,16.55
2018-06-04T03:49:47.164Z,16.60
2018-06-04T03:51:14.630Z,16.70
2018-06-04T03:52:42.202Z,16.90
2018-06-04T03:54:10.040Z,17.08
2018-06-04T03:55:35.620Z,17.29
2018-06-04T03:57:02.906Z,17.43
2018-06-04T03:58:30.490Z,17.56
2018-06-04T03:59:59.049Z,17.62
2018-06-04T04:01:26.541Z,17.66
2018-06-04T04:02:53.003Z,17.67
2018-06-04T04:04:20.051Z,17.67
2018-06-04T04:05:48.577Z,17.66
2018-06-04T04:07:15.003Z,17.60
2018-06-04T04:08:42.372Z,17.53
2018-06-04T04:10:09.325Z,17.46
2018-06-04T04:11:36.906Z,17.39
2018-06-04T04:13:05.296Z,17.35
2018-06-04T04:14:31.318Z,17.31
2018-06-04T04:15:58.689Z,17.28
2018-06-04T04:17:25.478Z,17.25
2018-06-04T04:18:52.847Z,17.27
2018-06-04T04:20:20.866Z,17.28
2018-06-04T04:21:47.286Z,17.29
2018-06-04T04:23:14.667Z,17.33
2018-06-04T04:24:42.321Z,17.37
2018-06-04T04:26:09.684Z,17.40
2018-06-04T04:27:37.720Z,17.43
2018-06-04T04:29:04.047Z,17.47
2018-06-04T04:30:31.647Z,17.49
2018-06-04T04:31:59.234Z,17.52
2018-06-04T04:33:25.641Z,17.54
2018-06-04T04:34:53.050Z,17.53
2018-06-04T04:36:19.717Z,17.52
2018-06-04T04:37:48.290Z,17.49
2018-06-04T04:39:14.569Z,17.45
2018-06-04T04:40:42.189Z,17.43
2018-06-04T04:42:10.745Z,17.43
2018-06-04T04:43:37.141Z,17.45
2018-06-04T04:45:04.955Z,17.45
2018-06-04T04:46:32.544Z,17.47
2018-06-04T04:47:58.931Z,17.49
2018-06-04T04:49:26.295Z,17.49
2018-06-04T04:50:53.412Z,17.49
2018-06-04T04:52:20.277Z,17.48
2018-06-04T04:53:46.577Z,17.46
2018-06-04T04:55:14.074Z,17.45
2018-06-04T04:56:41.400Z,17.43
2018-06-04T04:58:08.903Z,17.43
2018-06-04T04:59:35.943Z,17.43
2018-06-04T05:01:03.495Z,17.46
2018-06-04T05:02:30.035Z,17.46
2018-06-04T05:03:57.113Z,17.48
2018-06-04T05:05:25.500Z,17.52
2018-06-04T05:06:51.977Z,17.55
2018-06-04T05:08:20.410Z,17.56
2018-06-04T05:09:46.694Z,17.57
2018-06-04T05:11:14.441Z,17.56
2018-06-04T05:12:39.951Z,17.54
2018-06-04T05:14:08.414Z,17.55
2018-06-04T05:15:34.334Z,17.57
2018-06-04T05:17:01.849Z,17.57
2018-06-04T05:18:29.317Z,17.56
2018-06-04T05:19:56.490Z,17.57
2018-06-04T05:21:24.028Z,17.55
2018-06-04T05:22:51.690Z,17.54
2018-06-04T05:24:18.070Z,17.54
2018-06-04T05:25:46.591Z,17.56
2018-06-04T05:27:12.166Z,17.58
2018-06-04T05:28:40.675Z,17.60
2018-06-04T05:30:06.685Z,17.61
2018-06-04T05:31:34.050Z,17.64
2018-06-04T05:33:01.423Z,17.68
2018-06-04T05:34:28.956Z,17.71
2018-06-04T05:35:57.508Z,17.74
2018-06-04T05:37:23.824Z,17.75
2018-06-04T05:38:52.359Z,17.77
2018-06-04T05:40:18.853Z,17.76
2018-06-04T05:41:45.227Z,17.73
2018-06-04T05:43:12.472Z,17.72
2018-06-04T05:44:39.791Z,17.71
2018-06-04T05:46:06.823Z,17.70
2018-06-04T05:47:35.069Z,17.69
2018-06-04T05:49:02.440Z,17.68
2018-06-04T05:50:28.938Z,17.68
2018-06-04T05:51:56.350Z,17.68
2018-06-04T05:53:23.833Z,17.69
2018-06-04T05:54:52.435Z,17.72
2018-06-04T05:56:18.417Z,17.73
2018-06-04T05:57:45.390Z,17.72
2018-06-04T05:59:13.809Z,17.71
2018-06-04T06:00:40.289Z,17.71
2018-06-04T06:02:07.756Z,17.71
2018-06-04T06:03:36.373Z,17.71
2018-06-04T06:05:02.860Z,17.70
2018-06-04T06:06:30.302Z,17.68
2018-06-04T06:07:57.853Z,17.66
2018-06-04T06:09:25.187Z,17.65
2018-06-04T06:10:52.668Z,17.64
2018-06-04T06:12:20.251Z,17.64
2018-06-04T06:13:47.564Z,17.63
2018-06-04T06:15:15.037Z,17.62
2018-06-04T06:16:43.200Z,17.64
2018-06-04T06:18:09.563Z,17.66
2018-06-04T06:19:37.094Z,17.66
2018-06-04T06:21:04.456Z,17.66
2018-06-04T06:22:31.904Z,17.67
2018-06-04T06:24:00.295Z,17.69
2018-06-04T06:25:26.880Z,17.72
2018-06-04T06:26:55.123Z,17.74
2018-06-04T06:28:22.438Z,17.75
2018-06-04T06:29:48.790Z,17.75
2018-06-04T06:31:16.286Z,17.74
2018-06-04T06:32:44.643Z,17.74
2018-06-04T06:34:11.080Z,17.75
2018-06-04T06:35:38.480Z,17.73
2018-06-04T06:37:06.955Z,17.75
2018-06-04T06:38:33.295Z,17.76
2018-06-04T06:40:00.459Z,17.79
2018-06-04T06:41:27.999Z,17.81
2018-06-04T06:42:56.490Z,17.84
2018-06-04T06:44:24.157Z,17.87
2018-06-04T06:45:50.669Z,17.89
2018-06-04T06:47:17.159Z,17.91
2018-06-04T06:48:44.539Z,17.93
2018-06-04T06:50:12.021Z,17.95
2018-06-04T06:51:39.536Z,17.95
2018-06-04T06:53:07.559Z,17.94
2018-06-04T06:54:33.846Z,17.95
2018-06-04T06:56:02.320Z,17.97
2018-06-04T06:57:29.821Z,17.99
2018-06-04T06:58:55.275Z,18.01
2018-06-04T07:00:23.892Z,18.02
2018-06-04T07:01:51.381Z,18.01
2018-06-04T07:03:18.698Z,18.01
2018-06-04T07:04:45.232Z,18.03
2018-06-04T07:06:12.050Z,18.05
2018-06-04T07:07:38.638Z,18.07
2018-06-04T07:09:05.957Z,18.07
2018-06-04T07:10:33.414Z,18.07
2018-06-04T07:12:01.071Z,18.07
2018-06-04T07:13:28.763Z,18.08
2018-06-04T07:14:55.448Z,18.09
2018-06-04T07:16:22.986Z,18.13
2018-06-04T07:17:50.208Z,18.16
2018-06-04T07:19:17.718Z,18.19
2018-06-04T07:20:48.098Z,18.19
2018-06-04T07:22:12.658Z,18.20
2018-06-04T07:23:39.133Z,18.23
2018-06-04T07:25:06.626Z,18.27
2018-06-04T07:26:35.202Z,18.29
2018-06-04T07:28:02.754Z,18.30
2018-06-04T07:29:29.267Z,18.30
2018-06-04T07:30:56.889Z,18.28
2018-06-04T07:32:24.298Z,18.27
2018-06-04T07:33:52.869Z,18.28
2018-06-04T07:35:19.351Z,18.29
2018-06-04T07:36:46.818Z,18.32
2018-06-04T07:38:14.361Z,18.35
2018-06-04T07:39:42.798Z,18.36
2018-06-04T07:41:09.359Z,18.36
2018-06-04T07:42:36.645Z,18.35
2018-06-04T07:44:05.129Z,18.36
2018-06-04T07:45:32.600Z,18.38
2018-06-04T07:46:59.108Z,18.41
2018-06-04T07:48:26.321Z,18.43
2018-06-04T07:49:54.059Z,18.45
2018-06-04T07:51:21.477Z,18.48
2018-06-04T07:52:49.985Z,18.49
2018-06-04T07:54:17.355Z,18.51
2018-06-04T07:55:44.814Z,18.51
2018-06-04T07:57:11.056Z,18.52
2018-06-04T07:58:38.450Z,18.53
2018-06-04T08:00:05.652Z,18.51
2018-06-04T08:01:33.208Z,18.51
2018-06-04T08:03:01.811Z,18.48
2018-06-04T08:04:29.423Z,18.49
2018-06-04T08:05:55.949Z,18.46
2018-06-04T08:07:24.546Z,18.44
2018-06-04T08:08:51.886Z,18.41
2018-06-04T08:10:18.538Z,18.40
2018-06-04T08:11:47.033Z,18.42
2018-06-04T08:13:13.449Z,18.45
2018-06-04T08:14:40.691Z,18.47
2018-06-04T08:16:09.210Z,18.51
2018-06-04T08:17:36.553Z,18.55
2018-06-04T08:19:03.037Z,18.56
2018-06-04T08:20:31.496Z,18.57
2018-06-04T08:21:59.027Z,18.57
2018-06-04T08:23:26.584Z,18.60
2018-06-04T08:24:54.083Z,18.64
2018-06-04T08:26:20.700Z,18.68
2018-06-04T08:27:48.125Z,18.69
2018-06-04T08:29:16.530Z,18.72
2018-06-04T08:30:43.957Z,18.74
2018-06-04T08:32:10.286Z,18.77
2018-06-04T08:33:37.741Z,18.78
2018-06-04T08:35:05.305Z,18.80
2018-06-04T08:36:33.729Z,18.82
2018-06-04T08:37:59.972Z,18.85
2018-06-04T08:39:28.483Z,18.86
2018-06-04T08:40:55.956Z,18.86
2018-06-04T08:42:23.262Z,18.85
2018-06-04T08:43:50.575Z,18.86
2018-06-04T08:45:17.065Z,18.86
2018-06-04T08:46:45.784Z,18.86
2018-06-04T08:48:12.069Z,18.83
2018-06-04T08:49:40.537Z,18.83
2018-06-04T08:51:07.107Z,18.85
2018-06-04T08:52:34.510Z,18.87
2018-06-04T08:54:02.917Z,18.89
2018-06-04T08:55:29.315Z,18.92
2018-06-04T08:56:57.748Z,18.92
2018-06-04T08:58:25.321Z,18.93
2018-06-04T08:59:52.827Z,18.94
2018-06-04T09:01:20.383Z,18.96
2018-06-04T09:02:47.973Z,18.94
2018-06-04T09:04:15.369Z,18.93
2018-06-04T09:05:42.908Z,18.94
2018-06-04T09:07:09.225Z,18.93
2018-06-04T09:08:37.661Z,18.92
2018-06-04T09:10:05.101Z,18.93
2018-06-04T09:11:32.523Z,18.93
2018-06-04T09:12:59.141Z,18.94
2018-06-04T09:14:26.646Z,18.95
2018-06-04T09:15:54.226Z,18.96
2018-06-04T09:17:22.748Z,18.97
2018-06-04T09:18:50.283Z,18.96
2018-06-04T09:20:17.763Z,18.92
2018-06-04T09:21:44.189Z,18.90
2018-06-04T09:23:11.337Z,18.90
2018-06-04T09:24:38.952Z,18.91
2018-06-04T09:26:07.442Z,18.91
2018-06-04T09:27:34.822Z,18.90
2018-06-04T09:29:02.284Z,18.92
2018-06-04T09:30:28.823Z,18.93
2018-06-04T09:31:56.265Z,18.93
2018-06-04T09:33:23.801Z,18.94
2018-06-04T09:34:52.362Z,18.95
2018-06-04T09:36:19.844Z,18.94
2018-06-04T09:37:47.328Z,18.98
2018-06-04T09:39:14.899Z,18.98
2018-06-04T09:40:42.298Z,18.97
2018-06-04T09:42:08.795Z,18.98
2018-06-04T09:43:37.286Z,19.01
2018-06-04T09:45:03.921Z,19.04
2018-06-04T09:46:31.351Z,19.07
2018-06-04T09:47:58.927Z,19.10
2018-06-04T09:49:26.312Z,19.13
2018-06-04T09:50:54.007Z,19.16
2018-06-04T09:52:22.559Z,19.19
2018-06-04T09:53:50.159Z,19.22
2018-06-04T09:55:17.670Z,19.23
2018-06-04T09:56:45.164Z,19.23
2018-06-04T09:58:12.621Z,19.24
2018-06-04T09:59:39.950Z,19.23
2018-06-04T10:01:06.556Z,19.25
2018-06-04T10:02:33.859Z,19.25
2018-06-04T10:04:01.565Z,19.27
2018-06-04T10:05:29.076Z,19.29
2018-06-04T10:06:56.559Z,19.32
2018-06-04T10:08:24.054Z,19.36
2018-06-04T10:09:51.410Z,19.40
2018-06-04T10:11:18.953Z,19.42
2018-06-04T10:12:46.413Z,19.45
2018-06-04T10:14:14.890Z,19.48
2018-06-04T10:15:41.260Z,19.51
2018-06-04T10:17:09.838Z,19.50
2018-06-04T10:18:37.309Z,19.51
2018-06-04T10:20:04.986Z,19.49
2018-06-04T10:21:31.429Z,19.48
2018-06-04T10:22:59.949Z,19.47
2018-06-04T10:24:26.357Z,19.50
2018-06-04T10:25:53.970Z,19.52
2018-06-04T10:27:21.526Z,19.54
2018-06-04T10:28:50.078Z,19.56
2018-06-04T10:30:17.716Z,19.58
2018-06-04T10:31:44.271Z,19.59
2018-06-04T10:33:11.777Z,19.62
2018-06-04T10:34:39.444Z,19.64
2018-06-04T10:36:06.756Z,19.66
2018-06-04T10:37:35.325Z,19.63
2018-06-04T10:39:01.874Z,19.60
2018-06-04T10:40:30.542Z,19.56
2018-06-04T10:41:57.020Z,19.53
2018-06-04T10:43:24.360Z,19.51
2018-06-04T10:44:51.641Z,19.51
2018-06-04T10:46:19.074Z,19.51
2018-06-04T10:47:46.549Z,19.52
2018-06-04T10:49:14.023Z,19.52
2018-06-04T10:50:42.611Z,19.52
2018-06-04T10:52:08.977Z,19.49
2018-06-04T10:53:36.350Z,19.50
2018-06-04T10:55:03.647Z,19.49
2018-06-04T10:56:32.240Z,19.51
2018-06-04T10:57:58.746Z,19.51
2018-06-04T10:59:26.278Z,19.52
2018-06-04T11:00:53.943Z,19.54
2018-06-04T11:02:21.427Z,19.57
2018-06-04T11:03:49.969Z,19.60
2018-06-04T11:05:17.385Z,19.60
2018-06-04T11:06:43.853Z,19.65
2018-06-04T11:08:12.436Z,19.70
2018-06-04T11:09:38.723Z,19.73
2018-06-04T11:11:07.334Z,19.76
2018-06-04T11:12:34.924Z,19.78
2018-06-04T11:14:02.391Z,19.80
2018-06-04T11:15:28.775Z,19.81
2018-06-04T11:16:56.208Z,19.81
2018-06-04T11:18:24.831Z,19.82
2018-06-04T11:19:51.122Z,19.81
2018-06-04T11:21:18.902Z,19.82
2018-06-04T11:22:47.278Z,19.82
2018-06-04T11:24:13.786Z,19.84
2018-06-04T11:25:41.358Z,19.85
2018-06-04T11:27:09.915Z,19.87
2018-06-04T11:28:36.391Z,19.87
2018-06-04T11:30:03.760Z,19.87
2018-06-04T11:31:32.350Z,19.87
2018-06-04T11:32:59.976Z,19.88
2018-06-04T11:34:26.527Z,19.92
2018-06-04T11:35:54.079Z,19.96
2018-06-04T11:37:22.664Z,20.01
2018-06-04T11:38:49.249Z,20.03
2018-06-04T11:40:17.590Z,20.05
2018-06-04T11:41:43.887Z,20.08
2018-06-04T11:43:12.512Z,20.11
2018-06-04T11:44:38.927Z,20.14
2018-06-04T11:46:07.460Z,20.15
2018-06-04T11:47:33.811Z,20.15
2018-06-04T11:49:02.340Z,20.16
2018-06-04T11:50:28.597Z,20.17
2018-06-04T11:51:56.292Z,20.22
2018-06-04T11:53:23.845Z,20.27
2018-06-04T11:54:51.305Z,20.32
2018-06-04T11:56:19.954Z,20.33
2018-06-04T11:57:46.389Z,20.34
2018-06-04T11:59:13.846Z,20.35
2018-06-04T12:00:41.554Z,20.35
2018-06-04T12:02:08.949Z,20.35
2018-06-04T12:03:36.567Z,20.30
2018-06-04T12:05:05.053Z,20.29
2018-06-04T12:06:31.688Z,20.24
2018-06-04T12:08:00.258Z,20.24
2018-06-04T12:09:26.700Z,20.24
2018-06-04T12:10:54.145Z,20.20
2018-06-04T12:12:21.606Z,20.18
2018-06-04T12:13:50.339Z,20.18
2018-06-04T12:15:17.894Z,20.20
2018-06-04T12:16:45.426Z,20.20
2018-06-04T12:18:11.899Z,20.18
2018-06-04T12:19:39.583Z,20.18
2018-06-04T12:21:06.971Z,20.18
2018-06-04T12:22:34.405Z,20.20
2018-06-04T12:24:02.937Z,20.22
2018-06-04T12:25:29.392Z,20.25
2018-06-04T12:26:56.857Z,20.28
2018-06-04T12:28:25.598Z,20.30
2018-06-04T12:29:52.194Z,20.31
2018-06-04T12:31:20.784Z,20.32
2018-06-04T12:32:47.290Z,20.31
2018-06-04T12:34:14.676Z,20.31
2018-06-04T12:35:42.029Z,20.32
2018-06-04T12:37:09.642Z,20.30
2018-06-04T12:38:38.344Z,20.31
2018-06-04T12:40:04.801Z,20.32
2018-06-04T12:41:33.465Z,20.35
2018-06-04T12:43:01.064Z,20.35
2018-06-04T12:44:28.561Z,20.37
2018-06-04T12:45:56.182Z,20.38
2018-06-04T12:47:22.724Z,20.38
2018-06-04T12:48:50.182Z,20.40
2018-06-04T12:50:18.836Z,20.42
2018-06-04T12:51:46.367Z,20.43
2018-06-04T12:53:13.807Z,20.45
2018-06-04T12:54:41.485Z,20.50
2018-06-04T12:56:07.764Z,20.52
2018-06-04T12:57:35.284Z,20.59
2018-06-04T12:59:04.011Z,20.63
2018-06-04T13:00:30.362Z,20.66
2018-06-04T13:01:58.090Z,20.70
2018-06-04T13:03:26.497Z,20.72
2018-06-04T13:04:53.085Z,20.73
2018-06-04T13:06:20.522Z,20.71
2018-06-04T13:07:49.053Z,20.71
2018-06-04T13:09:15.687Z,20.68
2018-06-04T13:10:43.205Z,20.65
2018-06-04T13:12:10.905Z,20.63
2018-06-04T13:13:39.473Z,20.61
2018-06-04T13:15:05.855Z,20.54
2018-06-04T13:16:33.267Z,20.51
2018-06-04T13:18:02.005Z,20.49
2018-06-04T13:19:29.503Z,20.44
2018-06-04T13:20:55.891Z,20.40
2018-06-04T13:22:23.407Z,20.41
2018-06-04T13:23:52.079Z,20.44
2018-06-04T13:25:18.379Z,20.47
2018-06-04T13:26:47.020Z,20.48
2018-06-04T13:28:14.628Z,20.50
2018-06-04T13:29:41.107Z,20.52
2018-06-04T13:31:08.646Z,20.52
2018-06-04T13:32:36.215Z,20.51
2018-06-04T13:34:04.758Z,20.52
2018-06-04T13:35:32.294Z,20.53
2018-06-04T13:36:58.847Z,20.54
2018-06-04T13:38:26.086Z,20.58
2018-06-04T13:39:54.655Z,20.62
2018-06-04T13:41:21.106Z,20.64
2018-06-04T13:42:48.711Z,20.65
2018-06-04T13:44:16.062Z,20.68
2018-06-04T13:45:43.722Z,20.73
2018-06-04T13:47:11.308Z,20.74
2018-06-04T13:48:38.806Z,20.78
2018-06-04T13:50:06.261Z,20.81
2018-06-04T13:51:33.870Z,20.89
2018-06-04T13:53:02.479Z,20.96
2018-06-04T13:54:29.096Z,21.03
2018-06-04T13:55:56.533Z,21.11
2018-06-04T13:57:24.066Z,21.15
2018-06-04T13:58:51.671Z,21.20
2018-06-04T14:00:19.169Z,21.24
2018-06-04T14:01:46.826Z,21.28
2018-06-04T14:03:14.447Z,21.27
2018-06-04T14:04:42.930Z,21.25
2018-06-04T14:06:10.491Z,21.22
2018-06-04T14:07:38.048Z,21.22
2018-06-04T14:09:05.543Z,21.19
2018-06-04T14:10:32.107Z,21.20
2018-06-04T14:12:00.723Z,21.19
2018-06-04T14:13:28.212Z,21.20
2018-06-04T14:14:54.849Z,21.20
2018-06-04T14:16:23.488Z,21.23
2018-06-04T14:17:51.093Z,21.28
2018-06-04T14:19:18.589Z,21.31
2018-06-04T14:20:46.194Z,21.33
2018-06-04T14:22:12.694Z,21.36
2018-06-04T14:23:40.269Z,21.40
2018-06-04T14:25:07.840Z,21.42
2018-06-04T14:26:36.352Z,21.45
2018-06-04T14:28:02.957Z,21.50
2018-06-04T14:29:30.463Z,21.54
2018-06-04T14:30:58.022Z,21.57
2018-06-04T14:32:25.671Z,21.58
2018-06-04T14:33:54.325Z,21.56
2018-06-04T14:35:20.605Z,21.58
2018-06-04T14:36:49.154Z,21.60
2018-06-04T14:38:15.655Z,21.61
2018-06-04T14:39:43.076Z,21.63
2018-06-04T14:41:11.740Z,21.65
2018-06-04T14:42:39.098Z,21.69
2018-06-04T14:44:06.241Z,21.72
2018-06-04T14:45:33.827Z,21.74
2018-06-04T14:47:00.191Z,21.72
2018-06-04T14:48:27.827Z,21.68
2018-06-04T14:49:56.497Z,21.68
2018-06-04T14:51:23.177Z,21.67
2018-06-04T14:52:50.653Z,21.67
2018-06-04T14:54:18.348Z,21.69
2018-06-04T14:55:45.813Z,21.70
2018-06-04T14:57:14.374Z,21.69
2018-06-04T14:58:40.928Z,21.68
2018-06-04T15:00:09.366Z,21.68
2018-06-04T15:01:36.964Z,21.70
2018-06-04T15:03:04.413Z,21.74
2018-06-04T15:04:30.964Z,21.76
2018-06-04T15:05:59.452Z,21.76
2018-06-04T15:07:25.959Z,21.76
2018-06-04T15:08:54.573Z,21.73
2018-06-04T15:10:21.106Z,21.73
2018-06-04T15:11:48.773Z,21.77
2018-06-04T15:13:16.403Z,21.81
2018-06-04T15:14:44.946Z,21.84
2018-06-04T15:16:11.602Z,21.85
2018-06-04T15:17:39.066Z,21.86
2018-06-04T15:19:06.741Z,21.87
2018-06-04T15:20:35.269Z,21.89
2018-06-04T15:22:01.859Z,21.89
2018-06-04T15:23:29.465Z,21.90
2018-06-04T15:24:58.116Z,21.90
2018-06-04T15:26:24.616Z,21.86
2018-06-04T15:27:52.261Z,21.82
2018-06-04T15:29:19.758Z,21.78
2018-06-04T15:30:47.127Z,21.77
2018-06-04T15:32:15.682Z,21.74
2018-06-04T15:33:42.154Z,21.72
2018-06-04T15:35:09.726Z,21.71
2018-06-04T15:36:37.290Z,21.70
2018-06-04T15:38:04.841Z,21.69
2018-06-04T15:39:32.509Z,21.68
2018-06-04T15:40:59.957Z,21.68
2018-06-04T15:42:27.535Z,21.67
2018-06-04T15:43:55.141Z,21.68
2018-06-04T15:45:22.716Z,21.69
2018-06-04T15:46:50.448Z,21.70
2018-06-04T15:48:19.049Z,21.70
2018-06-04T15:49:46.750Z,21.71
2018-06-04T15:51:14.348Z,21.72
2018-06-04T15:52:41.723Z,21.73
2018-06-04T15:54:09.202Z,21.70
2018-06-04T15:55:35.604Z,21.68
2018-06-04T15:57:02.997Z,21.67
2018-06-04T15:58:30.574Z,21.69
2018-06-04T15:59:59.142Z,21.71
2018-06-04T16:01:25.650Z,21.74
2018-06-04T16:02:53.258Z,21.74
2018-06-04T16:04:20.907Z,21.73
2018-06-04T16:05:49.448Z,21.69
2018-06-04T16:07:15.996Z,21.67
2018-06-04T16:08:43.514Z,21.65
2018-06-04T16:10:11.142Z,21.63
2018-06-04T16:11:38.871Z,21.63
2018-06-04T16:13:07.297Z,21.65
2018-06-04T16:14:33.810Z,21.67
2018-06-04T16:16:01.491Z,21.70
2018-06-04T16:17:38.854Z,21.71
2018-06-04T16:19:06.168Z,21.71
2018-06-04T16:20:33.645Z,21.70
2018-06-04T16:22:02.289Z,21.70
2018-06-04T16:23:29.747Z,21.69
2018-06-04T16:24:57.401Z,21.67
2018-06-04T16:26:24.066Z,21.66
2018-06-04T16:27:51.525Z,21.68
2018-06-04T16:29:19.076Z,21.70
2018-06-04T16:30:47.618Z,21.72
2018-06-04T16:32:15.110Z,21.71
2018-06-04T16:33:41.499Z,21.71
2018-06-04T16:35:08.952Z,21.70
2018-06-04T16:36:36.474Z,21.69
2018-06-04T16:38:05.327Z,21.71
2018-06-04T16:39:31.881Z,21.74
2018-06-04T16:40:59.438Z,21.74
2018-06-04T16:42:26.893Z,21.75
2018-06-04T16:43:54.379Z,21.73
2018-06-04T16:45:21.981Z,21.73
2018-06-04T16:46:50.610Z,21.72
2018-06-04T16:48:18.272Z,21.71
2018-06-04T16:49:45.656Z,21.71
2018-06-04T16:51:12.268Z,21.71
2018-06-04T16:52:39.905Z,21.71
2018-06-04T16:54:07.556Z,21.70
2018-06-04T16:55:35.017Z,21.70
2018-06-04T16:57:02.722Z,21.69
2018-06-04T16:58:30.253Z,21.67
2018-06-04T16:59:57.729Z,21.67
2018-06-04T17:01:25.308Z,21.68
2018-06-04T17:02:52.884Z,21.68
2018-06-04T17:04:21.534Z,21.67
2018-06-04T17:05:48.146Z,21.67
2018-06-04T17:07:16.730Z,21.67
2018-06-04T17:08:43.328Z,21.67
2018-06-04T17:10:10.987Z,21.67
2018-06-04T17:11:39.364Z,21.66
2018-06-04T17:13:06.115Z,21.67
2018-06-04T17:14:34.647Z,21.67
2018-06-04T17:16:01.024Z,21.66
2018-06-04T17:17:28.610Z,21.66
2018-06-04T17:18:57.167Z,21.65
2018-06-04T17:20:23.854Z,21.64
2018-06-04T17:21:52.245Z,21.62
2018-06-04T17:23:19.740Z,21.61
2018-06-04T17:24:47.136Z,21.60
2018-06-04T17:26:13.633Z,21.56
2018-06-04T17:27:41.359Z,21.55
2018-06-04T17:29:08.993Z,21.55
2018-06-04T17:30:36.533Z,21.54
2018-06-04T17:32:04.380Z,21.54
2018-06-04T17:33:32.799Z,21.55
2018-06-04T17:34:59.221Z,21.55
2018-06-04T17:36:27.813Z,21.54
2018-06-04T17:37:55.380Z,21.53
2018-06-04T17:39:23.112Z,21.52
2018-06-04T17:40:49.639Z,21.51
2018-06-04T17:42:17.246Z,21.48
2018-06-04T17:43:44.869Z,21.46
2018-06-04T17:45:12.601Z,21.44
2018-06-04T17:46:40.101Z,21.43
2018-06-04T17:48:07.451Z,21.42
2018-06-04T17:49:34.709Z,21.41
2018-06-04T17:51:02.208Z,21.40
2018-06-04T17:52:29.918Z,21.40
2018-06-04T17:53:58.601Z,21.41
2018-06-04T17:55:26.067Z,21.40
2018-06-04T17:56:53.670Z,21.39
2018-06-04T17:58:21.267Z,21.39
2018-06-04T17:59:48.800Z,21.38
2018-06-04T18:01:16.067Z,21.37
2018-06-04T18:02:43.744Z,21.35
2018-06-04T18:04:10.914Z,21.32
2018-06-04T18:05:38.547Z,21.29
2018-06-04T18:07:05.142Z,21.28
2018-06-04T18:08:32.654Z,21.25
2018-06-04T18:10:00.246Z,21.23
2018-06-04T18:11:28.839Z,21.22
2018-06-04T18:12:55.255Z,21.20
2018-06-04T18:14:23.904Z,21.18
2018-06-04T18:15:50.219Z,21.17
2018-06-04T18:17:18.839Z,21.17
2018-06-04T18:18:46.330Z,21.17
2018-06-04T18:20:13.000Z,21.16
2018-06-04T18:21:40.502Z,21.16
2018-06-04T18:23:07.810Z,21.13
2018-06-04T18:24:36.308Z,21.12
2018-06-04T18:26:02.853Z,21.12
2018-06-04T18:27:31.473Z,21.11
2018-06-04T18:28:57.791Z,21.10
2018-06-04T18:30:26.544Z,21.09
2018-06-04T18:31:53.010Z,21.08
2018-06-04T18:33:21.699Z,21.07
2018-06-04T18:34:48.314Z,21.07
2018-06-04T18:36:16.780Z,21.06
2018-06-04T18:37:43.032Z,21.04
2018-06-04T18:39:11.565Z,21.01
2018-06-04T18:40:39.097Z,21.00
2018-06-04T18:42:06.405Z,20.97
2018-06-04T18:43:32.811Z,20.96
2018-06-04T18:45:00.328Z,20.95